Time;durP1;ratioP1;P1;durP2;ratioP2;P2;SDS_P1;SDS_P2;PMS_P1;PMS_P2;Temp;Humidity;BMP_temperature;BMP_pressure;BME280_temperature;BME280_humidity;BME280_pressure;Samples;Min_cycle;Max_cycle;Signal;HPM_P1;HPM_P2
2022/10/31 00:01:35;;;;;;;30.15;19.58;;;19.30;85.70;;;;;;5032762;28;20026;-76
2022/10/31 00:04:00;;;;;;;30.23;19.92;;;19.30;85.70;;;;;;5016871;28;20068;-76
2022/10/31 00:06:26;;;;;;;23.98;19.17;;;19.30;85.70;;;;;;5032830;28;20444;-76
2022/10/31 00:08:53;;;;;;;29.45;19.70;;;19.40;85.80;;;;;;5016255;28;20053;-76
2022/10/31 00:11:19;;;;;;;25.55;18.70;;;19.30;85.70;;;;;;5000160;28;20431;-76
2022/10/31 00:13:45;;;;;;;31.90;19.40;;;19.30;85.60;;;;;;5032873;28;20021;-76
2022/10/31 00:16:18;;;;;;;29.23;19.45;;;19.30;85.80;;;;;;5033906;28;20460;-75
2022/10/31 00:18:43;;;;;;;23.83;18.42;;;19.30;85.70;;;;;;5033983;28;20478;-76
2022/10/31 00:21:09;;;;;;;25.25;18.25;;;19.30;85.70;;;;;;5016290;28;20030;-76
2022/10/31 00:23:35;;;;;;;23.55;17.42;;;19.30;85.80;;;;;;5015999;28;20565;-76
2022/10/31 00:26:01;;;;;;;28.98;19.10;;;19.30;85.70;;;;;;5032683;28;20112;-76
2022/10/31 00:28:27;;;;;;;23.90;18.27;;;19.30;85.90;;;;;;5015903;28;20446;-76
2022/10/31 00:30:53;;;;;;;27.27;19.40;;;19.30;85.90;;;;;;5016099;28;20054;-76
2022/10/31 00:33:18;;;;;;;25.13;19.75;;;19.30;85.90;;;;;;5032256;28;20033;-76
2022/10/31 00:35:50;;;;;;;26.20;18.55;;;19.30;85.90;;;;;;5032529;28;20036;-76
2022/10/31 00:38:15;;;;;;;27.70;18.95;;;19.30;85.90;;;;;;5016027;28;20025;-76
2022/10/31 00:40:41;;;;;;;23.52;18.23;;;19.30;85.90;;;;;;5032126;28;20446;-76
2022/10/31 00:43:07;;;;;;;26.42;18.70;;;19.30;86.00;;;;;;5032329;28;20014;-75
2022/10/31 00:45:32;;;;;;;23.95;18.17;;;19.30;86.90;;;;;;5033240;28;20026;-76
2022/10/31 00:47:58;;;;;;;23.00;16.70;;;19.30;86.00;;;;;;5032170;28;20562;-76
2022/10/31 00:50:23;;;;;;;24.83;18.52;;;19.30;86.00;;;;;;5032979;28;20087;-76
2022/10/31 00:52:49;;;;;;;27.58;18.13;;;19.30;85.90;;;;;;5032691;28;20049;-76
2022/10/31 00:55:15;;;;;;;21.05;17.00;;;19.30;86.00;;;;;;5033088;28;20080;-76
2022/10/31 00:57:40;;;;;;;24.00;17.60;;;19.30;86.00;;;;;;5033197;28;20080;-75
2022/10/31 01:00:07;;;;;;;25.70;17.38;;;19.30;86.00;;;;;;5033041;28;20439;-76
2022/10/31 01:02:32;;;;;;;26.27;17.63;;;19.30;86.00;;;;;;5050199;28;20079;-76
2022/10/31 01:04:58;;;;;;;24.50;17.63;;;19.30;86.10;;;;;;5051839;28;20033;-75
2022/10/31 01:07:23;;;;;;;25.85;17.15;;;19.30;86.10;;;;;;5052966;28;20076;-75
2022/10/31 01:09:49;;;;;;;26.17;18.30;;;19.30;86.10;;;;;;5053075;28;20029;-75
2022/10/31 01:12:15;;;;;;;22.67;17.02;;;19.30;86.10;;;;;;5052914;28;20025;-75
2022/10/31 01:14:44;;;;;;;23.83;17.70;;;19.30;86.10;;;;;;5052656;28;20029;-76
2022/10/31 01:17:11;;;;;;;25.40;17.63;;;19.30;86.00;;;;;;5035203;28;20112;-75
2022/10/31 01:19:36;;;;;;;22.33;17.40;;;19.30;86.10;;;;;;5052812;28;20024;-76
2022/10/31 01:22:02;;;;;;;23.30;16.92;;;19.30;86.10;;;;;;5051589;28;20088;-76
2022/10/31 01:24:27;;;;;;;23.52;17.13;;;19.20;86.10;;;;;;5052746;28;20395;-75
2022/10/31 01:26:53;;;;;;;23.50;16.60;;;19.20;86.00;;;;;;5052970;28;20092;-76
2022/10/31 01:29:19;;;;;;;21.95;16.88;;;19.30;86.10;;;;;;5051450;28;20036;-76
2022/10/31 01:31:44;;;;;;;24.50;16.88;;;19.30;86.00;;;;;;5051443;28;20029;-76
2022/10/31 01:34:14;;;;;;;20.63;15.50;;;19.20;86.10;;;;;;5051384;28;20134;-76
2022/10/31 01:36:40;;;;;;;23.85;16.20;;;19.30;86.00;;;;;;5051294;28;20108;-76
2022/10/31 01:39:07;;;;;;;21.95;16.23;;;19.30;86.00;;;;;;5034904;28;20594;-75
2022/10/31 01:41:35;;;;;;;23.55;17.13;;;19.20;86.00;;;;;;5052602;28;20022;-75
2022/10/31 01:44:03;;;;;;;24.83;15.55;;;19.30;86.20;;;;;;5034986;28;20022;-76
2022/10/31 01:46:37;;;;;;;19.38;16.02;;;19.20;86.10;;;;;;5034880;28;20025;-75
2022/10/31 01:49:08;;;;;;;25.50;16.48;;;19.20;86.10;;;;;;5035061;28;20029;-76
2022/10/31 01:51:36;;;;;;;22.25;15.65;;;19.30;86.10;;;;;;5018592;28;20391;-76
2022/10/31 01:54:06;;;;;;;27.00;16.45;;;19.30;86.20;;;;;;5025623;28;20025;-76
2022/10/31 01:56:32;;;;;;;23.10;15.75;;;19.20;86.10;;;;;;5014955;28;20103;-76
2022/10/31 01:58:57;;;;;;;21.90;15.45;;;19.20;86.10;;;;;;5014760;28;20076;-75
2022/10/31 02:01:23;;;;;;;19.95;15.73;;;19.20;86.10;;;;;;5023795;28;20041;-76
2022/10/31 02:03:49;;;;;;;19.17;15.48;;;19.20;86.20;;;;;;5054017;28;20031;-76
2022/10/31 02:06:37;;;;;;;17.85;15.23;;;19.20;86.20;;;;;;5056528;28;20388;-76
2022/10/31 02:09:04;;;;;;;17.73;15.00;;;19.20;86.20;;;;;;5055230;28;20040;-75
2022/10/31 02:11:30;;;;;;;27.98;15.40;;;19.20;86.20;;;;;;5031950;28;20120;-75
2022/10/31 02:13:55;;;;;;;21.27;15.80;;;19.20;86.20;;;;;;5022902;28;20113;-75
2022/10/31 02:16:21;;;;;;;23.80;16.38;;;19.20;86.20;;;;;;5018677;28;20021;-75
2022/10/31 02:18:46;;;;;;;20.38;14.95;;;19.20;86.20;;;;;;5036115;28;20472;-75
2022/10/31 02:21:18;;;;;;;24.98;15.20;;;19.20;86.20;;;;;;5036064;28;20026;-75
2022/10/31 02:24:12;;;;;;;20.38;14.98;;;19.20;86.30;;;;;;5018769;28;20079;-75
2022/10/31 02:26:59;;;;;;;17.85;14.55;;;19.20;86.20;;;;;;5034863;28;20067;-75
2022/10/31 02:29:53;;;;;;;20.65;15.18;;;19.20;86.20;;;;;;5020242;28;20029;-75
2022/10/31 02:32:27;;;;;;;20.95;15.80;;;19.20;86.40;;;;;;5014056;28;20041;-75
2022/10/31 02:35:30;;;;;;;18.25;14.43;;;19.20;86.30;;;;;;4997903;28;20037;-75
2022/10/31 02:38:18;;;;;;;19.92;15.18;;;19.20;86.40;;;;;;5000160;28;20420;-75
2022/10/31 02:41:24;;;;;;;17.38;13.82;;;19.20;86.50;;;;;;4997245;28;20400;-75
2022/10/31 02:44:06;;;;;;;19.73;14.75;;;19.20;86.50;;;;;;4955122;29;20047;-75
2022/10/31 02:46:32;;;;;;;22.33;14.88;;;19.20;86.50;;;;;;4955589;29;20501;-75
2022/10/31 02:49:00;;;;;;;19.17;14.40;;;19.20;86.50;;;;;;4955168;29;20031;-75
2022/10/31 02:51:25;;;;;;;18.80;14.73;;;19.10;86.50;;;;;;4955207;29;20038;-75
2022/10/31 02:53:51;;;;;;;18.13;14.55;;;19.10;86.50;;;;;;4962915;28;20039;-75
2022/10/31 02:56:18;;;;;;;16.33;13.85;;;19.20;86.60;;;;;;4958152;28;20457;-75
2022/10/31 02:58:59;;;;;;;19.45;14.32;;;19.20;86.50;;;;;;4958329;28;20034;-75
2022/10/31 03:01:45;;;;;;;17.65;13.93;;;19.10;86.50;;;;;;4958183;28;20581;-75
2022/10/31 03:04:28;;;;;;;19.63;15.13;;;19.10;86.50;;;;;;4974453;28;20022;-76
2022/10/31 03:07:15;;;;;;;22.42;14.60;;;19.20;86.50;;;;;;4974277;28;20041;-76
2022/10/31 03:10:00;;;;;;;19.20;13.85;;;19.10;86.50;;;;;;4988258;28;20503;-75
2022/10/31 03:12:28;;;;;;;18.40;15.00;;;19.20;86.60;;;;;;4977897;28;20110;-75
2022/10/31 03:15:13;;;;;;;21.73;14.50;;;19.10;86.60;;;;;;4976316;28;20034;-75
2022/10/31 03:18:11;;;;;;;19.90;14.38;;;19.10;86.60;;;;;;4979354;28;20030;-75
2022/10/31 03:20:39;;;;;;;22.45;14.88;;;19.10;86.60;;;;;;5012063;28;20041;-75
2022/10/31 03:23:06;;;;;;;19.20;14.07;;;19.10;86.70;;;;;;5016034;28;20025;-75
2022/10/31 03:25:32;;;;;;;17.77;13.93;;;19.10;86.70;;;;;;5016032;28;20046;-76
2022/10/31 03:27:58;;;;;;;15.50;13.07;;;19.10;86.60;;;;;;5016276;28;20038;-76
2022/10/31 03:30:23;;;;;;;19.05;14.20;;;19.10;86.70;;;;;;5016161;28;20025;-76
2022/10/31 03:32:51;;;;;;;18.13;14.10;;;19.10;86.70;;;;;;5015963;28;20037;-76
2022/10/31 03:35:18;;;;;;;19.23;14.23;;;19.10;86.70;;;;;;4999664;28;20029;-76
2022/10/31 03:37:44;;;;;;;16.70;13.38;;;19.10;86.80;;;;;;5015719;28;20041;-76
2022/10/31 03:40:10;;;;;;;17.52;14.13;;;19.10;86.90;;;;;;5015699;28;20025;-75
2022/10/31 03:42:39;;;;;;;17.52;13.38;;;19.10;86.90;;;;;;5015939;28;20029;-75
2022/10/31 03:45:13;;;;;;;19.23;14.13;;;19.10;86.90;;;;;;5015817;28;20041;-75
2022/10/31 03:47:39;;;;;;;17.23;14.45;;;19.10;86.90;;;;;;5015863;28;20030;-75
2022/10/31 03:50:06;;;;;;;18.10;13.93;;;19.10;87.00;;;;;;5015726;28;20051;-75
2022/10/31 03:52:58;;;;;;;17.73;13.43;;;19.10;87.00;;;;;;5015941;28;20018;-75
2022/10/31 03:55:23;;;;;;;16.70;13.70;;;19.10;87.10;;;;;;5015330;28;20050;-75
2022/10/31 03:58:09;;;;;;;16.15;12.95;;;19.10;87.10;;;;;;5033350;28;20041;-75
2022/10/31 04:00:35;;;;;;;16.27;13.15;;;19.10;87.00;;;;;;5035144;28;20476;-75
2022/10/31 04:03:02;;;;;;;16.50;13.10;;;19.10;87.20;;;;;;5036303;28;20013;-76
2022/10/31 04:05:27;;;;;;;18.65;13.93;;;19.10;87.20;;;;;;5053059;28;20057;-75
2022/10/31 04:07:54;;;;;;;18.02;13.23;;;19.00;87.10;;;;;;5052657;28;20723;-75
2022/10/31 04:10:21;;;;;;;15.38;13.05;;;19.10;87.20;;;;;;5036221;28;20021;-75
2022/10/31 04:12:50;;;;;;;16.92;13.48;;;19.10;87.30;;;;;;5052789;28;20100;-75
2022/10/31 04:15:16;;;;;;;19.60;12.90;;;19.10;87.30;;;;;;5019921;28;20116;-75
2022/10/31 04:17:42;;;;;;;17.50;13.48;;;19.10;87.30;;;;;;5036133;28;20108;-75
2022/10/31 04:20:08;;;;;;;15.95;12.50;;;19.10;87.40;;;;;;5035998;28;20040;-75
2022/10/31 04:22:33;;;;;;;18.55;12.88;;;19.00;87.30;;;;;;5052547;28;20048;-75
2022/10/31 04:24:59;;;;;;;14.32;12.82;;;19.10;87.40;;;;;;5052059;28;20526;-75
2022/10/31 04:27:24;;;;;;;15.35;12.98;;;19.10;87.30;;;;;;5052252;28;20029;-75
2022/10/31 04:29:50;;;;;;;16.00;12.63;;;19.10;87.40;;;;;;5052562;28;20079;-75
2022/10/31 04:32:16;;;;;;;18.23;13.13;;;19.10;87.40;;;;;;5053839;28;20039;-75
2022/10/31 04:34:41;;;;;;;17.80;13.45;;;19.10;87.40;;;;;;5052377;28;20051;-75
2022/10/31 04:37:07;;;;;;;15.30;12.40;;;19.10;87.40;;;;;;5052392;28;20514;-75
2022/10/31 04:39:32;;;;;;;17.77;12.68;;;19.10;87.50;;;;;;5052184;28;20029;-76
2022/10/31 04:41:58;;;;;;;14.13;12.63;;;19.10;88.50;;;;;;5053462;28;20017;-75
2022/10/31 04:44:24;;;;;;;17.38;12.15;;;19.10;87.40;;;;;;5053690;28;20067;-75
2022/10/31 04:46:49;;;;;;;17.20;12.65;;;19.10;87.60;;;;;;5053323;28;20028;-76
2022/10/31 04:49:15;;;;;;;13.98;12.30;;;19.10;87.50;;;;;;5053555;28;20041;-76
2022/10/31 04:51:40;;;;;;;13.25;11.88;;;19.10;87.50;;;;;;5052117;28;20036;-75
2022/10/31 04:54:06;;;;;;;15.20;12.77;;;19.10;87.50;;;;;;5041778;28;20447;-76
2022/10/31 04:56:32;;;;;;;14.77;12.40;;;19.10;87.50;;;;;;5033099;28;20443;-75
2022/10/31 04:58:58;;;;;;;14.30;12.35;;;19.00;87.50;;;;;;5031941;28;20152;-75
2022/10/31 05:01:23;;;;;;;16.25;12.35;;;19.00;87.40;;;;;;5040971;28;20493;-75
2022/10/31 05:03:49;;;;;;;13.65;12.32;;;19.00;87.40;;;;;;5053054;28;20029;-75
2022/10/31 05:06:16;;;;;;;20.48;12.52;;;19.00;87.50;;;;;;5053159;28;20452;-75
2022/10/31 05:08:41;;;;;;;15.52;12.52;;;19.00;88.40;;;;;;5051499;28;20028;-75
2022/10/31 05:11:07;;;;;;;14.07;12.00;;;19.00;87.50;;;;;;5051600;28;20025;-75
2022/10/31 05:13:33;;;;;;;14.45;11.98;;;19.00;87.50;;;;;;5034974;28;20028;-75
2022/10/31 05:15:58;;;;;;;13.52;11.25;;;19.00;87.50;;;;;;5052882;28;20021;-76
2022/10/31 05:18:24;;;;;;;14.93;12.05;;;19.00;87.50;;;;;;5051675;28;20108;-75
2022/10/31 05:20:50;;;;;;;13.70;12.13;;;19.00;87.50;;;;;;5052769;28;20374;-75
2022/10/31 05:23:15;;;;;;;13.32;12.00;;;19.00;87.50;;;;;;5051486;28;20079;-76
2022/10/31 05:25:41;;;;;;;13.95;12.27;;;19.00;87.40;;;;;;5052818;28;20017;-75
2022/10/31 05:28:07;;;;;;;15.77;12.13;;;19.00;87.50;;;;;;5052707;28;20057;-76
2022/10/31 05:30:33;;;;;;;12.55;11.25;;;19.00;87.50;;;;;;5051712;28;20490;-75
2022/10/31 05:32:58;;;;;;;13.65;11.93;;;19.00;87.50;;;;;;5051270;28;20541;-75
2022/10/31 05:35:26;;;;;;;14.25;11.55;;;19.00;87.70;;;;;;5052717;28;20033;-75
2022/10/31 05:37:52;;;;;;;13.55;11.65;;;19.00;87.70;;;;;;5052417;28;20067;-75
2022/10/31 05:40:18;;;;;;;16.55;11.63;;;19.00;87.70;;;;;;5039001;28;20048;-75
2022/10/31 05:42:44;;;;;;;13.02;11.40;;;19.00;87.70;;;;;;5055411;28;20021;-75
2022/10/31 05:45:11;;;;;;;14.20;11.02;;;19.00;87.70;;;;;;5055747;28;20021;-75
2022/10/31 05:47:36;;;;;;;13.13;11.13;;;19.00;87.70;;;;;;5055463;28;20132;-75
2022/10/31 05:50:03;;;;;;;13.60;10.90;;;19.00;87.70;;;;;;5056428;28;20048;-75
2022/10/31 05:52:28;;;;;;;13.80;12.07;;;19.00;87.70;;;;;;5055453;28;20131;-75
2022/10/31 05:54:54;;;;;;;12.75;11.07;;;19.00;87.80;;;;;;5021890;28;20042;-75
2022/10/31 05:57:19;;;;;;;14.60;11.20;;;19.00;87.70;;;;;;5036612;28;20025;-75
2022/10/31 05:59:45;;;;;;;12.32;11.00;;;19.00;87.70;;;;;;5035233;28;20060;-75
2022/10/31 06:02:11;;;;;;;16.40;11.30;;;19.00;87.70;;;;;;5050484;28;20021;-75
2022/10/31 06:04:36;;;;;;;12.27;11.07;;;19.00;87.80;;;;;;5056466;28;20100;-75
2022/10/31 06:07:02;;;;;;;14.35;11.30;;;19.00;87.70;;;;;;5054947;28;20497;-75
2022/10/31 06:09:27;;;;;;;12.27;10.02;;;19.00;87.70;;;;;;5056406;28;20029;-75
2022/10/31 06:11:53;;;;;;;15.07;11.13;;;19.00;87.80;;;;;;5056251;28;20048;-75
2022/10/31 06:14:19;;;;;;;13.88;11.10;;;19.00;87.70;;;;;;5055081;28;20025;-75
2022/10/31 06:16:44;;;;;;;15.43;10.80;;;19.00;87.70;;;;;;5056183;28;20040;-75
2022/10/31 06:19:10;;;;;;;12.35;10.68;;;19.00;87.70;;;;;;5037692;28;20056;-75
2022/10/31 06:21:35;;;;;;;13.30;10.57;;;19.00;87.70;;;;;;5056157;28;20072;-75
2022/10/31 06:24:01;;;;;;;12.68;10.88;;;19.00;87.70;;;;;;5055935;28;20099;-75
2022/10/31 06:26:27;;;;;;;11.32;10.02;;;19.00;87.70;;;;;;5054674;28;20471;-75
2022/10/31 06:28:52;;;;;;;12.52;10.93;;;19.00;87.70;;;;;;5054598;28;20158;-75
2022/10/31 06:31:18;;;;;;;12.48;9.95;;;18.90;87.60;;;;;;5054537;28;20086;-75
2022/10/31 06:33:43;;;;;;;11.43;10.32;;;18.90;87.60;;;;;;5055648;28;20024;-75
2022/10/31 06:36:09;;;;;;;11.30;10.20;;;18.90;87.60;;;;;;5037961;28;20029;-75
2022/10/31 06:38:35;;;;;;;14.48;10.70;;;18.90;87.60;;;;;;5037914;28;20086;-75
2022/10/31 06:41:05;;;;;;;12.50;10.25;;;18.90;87.60;;;;;;5055720;28;20028;-75
2022/10/31 06:43:30;;;;;;;11.93;10.73;;;18.90;87.60;;;;;;5037785;28;20043;-75
2022/10/31 06:45:56;;;;;;;12.80;10.77;;;18.90;87.60;;;;;;5054288;28;20538;-75
2022/10/31 06:48:22;;;;;;;11.57;9.85;;;18.90;87.60;;;;;;5053898;28;20491;-76
2022/10/31 06:50:47;;;;;;;12.40;9.25;;;18.90;87.50;;;;;;5055465;28;20483;-76
2022/10/31 06:53:16;;;;;;;12.32;9.70;;;18.90;87.50;;;;;;5051536;28;20021;-76
2022/10/31 06:55:41;;;;;;;13.38;10.30;;;18.90;87.50;;;;;;5035543;28;20100;-76
2022/10/31 06:58:08;;;;;;;13.48;9.55;;;18.90;87.60;;;;;;5034143;28;20419;-75
2022/10/31 07:00:34;;;;;;;11.48;9.60;;;19.00;87.60;;;;;;5019328;28;20357;-76
2022/10/31 07:03:08;;;;;;;10.90;9.80;;;18.90;88.60;;;;;;5053907;28;20021;-75
2022/10/31 07:05:34;;;;;;;13.38;9.75;;;18.90;87.60;;;;;;5038453;28;20063;-75
2022/10/31 07:08:02;;;;;;;11.32;10.15;;;18.90;87.60;;;;;;5053675;28;20502;-76
2022/10/31 07:10:28;;;;;;;12.10;10.00;;;18.90;87.60;;;;;;5035239;28;20033;-75
2022/10/31 07:12:58;;;;;;;12.27;9.30;;;18.90;87.60;;;;;;5025991;28;20555;-75
2022/10/31 07:15:25;;;;;;;13.32;9.75;;;18.90;87.70;;;;;;5033871;28;20021;-76
2022/10/31 07:17:50;;;;;;;6.38;5.03;;;18.90;87.70;;;;;;5001007;28;20045;-76
2022/10/31 07:20:16;;;;;;;6.78;4.80;;;18.90;85.40;;;;;;5035882;28;20020;-76
2022/10/31 07:22:42;;;;;;;5.72;4.65;;;18.80;84.60;;;;;;5042359;28;20472;-76
2022/10/31 07:25:08;;;;;;;6.18;5.20;;;18.80;84.70;;;;;;5033848;28;20025;-76
2022/10/31 07:27:37;;;;;;;7.70;5.30;;;18.80;84.50;;;;;;5033716;28;20030;-77
2022/10/31 07:30:04;;;;;;;8.32;5.68;;;18.80;84.50;;;;;;5017129;28;20025;-76
2022/10/31 07:32:40;;;;;;;5.72;5.05;;;18.80;84.50;;;;;;5017216;28;20022;-76
2022/10/31 07:35:11;;;;;;;5.88;4.82;;;18.70;84.40;;;;;;5017444;28;20044;-76
2022/10/31 07:37:36;;;;;;;7.05;5.32;;;18.70;84.40;;;;;;5033314;28;20037;-76
2022/10/31 07:40:06;;;;;;;6.93;5.25;;;18.70;84.50;;;;;;5034268;28;20380;-76
2022/10/31 07:42:41;;;;;;;5.25;4.75;;;18.70;84.40;;;;;;5016916;28;20087;-76
2022/10/31 07:45:09;;;;;;;5.28;4.75;;;18.70;84.40;;;;;;5023090;28;20025;-76
2022/10/31 07:47:41;;;;;;;7.15;5.13;;;18.70;84.50;;;;;;5028897;28;20070;-76
2022/10/31 07:50:08;;;;;;;6.63;5.15;;;18.70;84.50;;;;;;5026645;28;20025;-76
2022/10/31 07:52:34;;;;;;;7.20;5.38;;;18.70;84.40;;;;;;5027429;28;20112;-76
2022/10/31 07:54:59;;;;;;;11.25;5.60;;;18.70;84.50;;;;;;5039488;28;20125;-76
2022/10/31 07:57:25;;;;;;;21.02;7.03;;;18.70;84.70;;;;;;5048123;28;20021;-77
2022/10/31 07:59:51;;;;;;;33.20;7.90;;;18.60;84.70;;;;;;5052076;28;20025;-76
2022/10/31 08:02:16;;;;;;;30.35;6.65;;;18.70;84.90;;;;;;5019240;28;20021;-77
2022/10/31 08:04:42;;;;;;;32.20;6.93;;;18.70;85.00;;;;;;5032483;28;20030;-77
2022/10/31 08:07:07;;;;;;;20.38;6.57;;;18.70;85.10;;;;;;5032219;28;20017;-76
2022/10/31 08:09:33;;;;;;;22.05;6.18;;;18.70;85.20;;;;;;5032393;28;20032;-77
2022/10/31 08:11:59;;;;;;;15.02;6.38;;;18.70;85.30;;;;;;5032341;28;20029;-76
2022/10/31 08:14:24;;;;;;;14.18;6.35;;;18.60;85.30;;;;;;5038955;28;20108;-77
2022/10/31 08:16:50;;;;;;;21.08;6.50;;;18.70;85.40;;;;;;5049091;28;20037;-77
2022/10/31 08:19:15;;;;;;;26.23;7.35;;;18.60;86.40;;;;;;5031939;28;20033;-77
2022/10/31 08:21:41;;;;;;;25.20;7.15;;;18.60;85.40;;;;;;5040989;28;20029;-77
2022/10/31 08:24:07;;;;;;;21.70;7.22;;;18.60;85.40;;;;;;5051904;28;20040;-76
2022/10/31 08:26:32;;;;;;;19.60;6.47;;;18.60;85.40;;;;;;5053175;28;20028;-77
2022/10/31 08:28:58;;;;;;;22.30;6.32;;;18.60;85.40;;;;;;5051795;28;20060;-77
2022/10/31 08:31:26;;;;;;;15.10;6.00;;;18.60;85.40;;;;;;5034422;28;20026;-76
2022/10/31 08:33:52;;;;;;;24.73;6.72;;;18.60;85.30;;;;;;5031804;28;20036;-77
2022/10/31 08:36:18;;;;;;;13.80;5.88;;;18.60;85.40;;;;;;5031765;28;20099;-77
2022/10/31 08:38:44;;;;;;;17.50;6.10;;;18.60;85.30;;;;;;5033071;28;20468;-77
2022/10/31 08:41:09;;;;;;;19.75;5.75;;;18.60;85.30;;;;;;5033247;28;20026;-77
2022/10/31 08:43:35;;;;;;;22.17;6.72;;;18.60;85.30;;;;;;5031815;28;20030;-77
2022/10/31 08:46:01;;;;;;;25.58;6.43;;;18.60;85.30;;;;;;5031755;28;20033;-77
2022/10/31 08:48:27;;;;;;;18.70;6.40;;;18.60;85.30;;;;;;5048885;28;20036;-76
2022/10/31 08:50:56;;;;;;;15.55;5.93;;;18.60;85.30;;;;;;5052696;28;20024;-77
2022/10/31 08:53:22;;;;;;;22.02;6.70;;;18.50;85.30;;;;;;5047361;28;20108;-77
2022/10/31 08:55:48;;;;;;;18.80;6.13;;;18.60;85.30;;;;;;5031669;28;20121;-77
2022/10/31 08:58:16;;;;;;;17.90;6.18;;;18.50;85.30;;;;;;5032559;28;20079;-77
2022/10/31 09:00:42;;;;;;;15.73;5.60;;;18.50;85.20;;;;;;5032420;28;20396;-76
2022/10/31 09:03:12;;;;;;;21.05;6.30;;;18.50;85.20;;;;;;5031540;28;20021;-77
2022/10/31 09:05:38;;;;;;;17.30;5.70;;;18.50;85.20;;;;;;5031350;28;20018;-77
2022/10/31 09:08:04;;;;;;;17.20;5.90;;;18.50;85.30;;;;;;5031356;28;20559;-77
2022/10/31 09:10:30;;;;;;;12.77;5.55;;;18.50;85.20;;;;;;5031442;28;20111;-77
2022/10/31 09:13:03;;;;;;;12.82;5.78;;;18.50;85.20;;;;;;5030500;28;20058;-77
2022/10/31 09:15:30;;;;;;;19.23;5.95;;;18.50;85.40;;;;;;5031288;28;20025;-76
2022/10/31 09:17:56;;;;;;;15.73;5.55;;;18.50;85.30;;;;;;5031345;28;20380;-76
2022/10/31 09:20:21;;;;;;;17.95;6.00;;;18.50;85.20;;;;;;5032078;28;20026;-77
2022/10/31 09:22:47;;;;;;;12.48;5.93;;;18.50;85.30;;;;;;5049921;28;20025;-76
2022/10/31 09:25:13;;;;;;;12.85;5.22;;;18.50;85.20;;;;;;5052183;28;20029;-76
2022/10/31 09:27:39;;;;;;;19.90;5.80;;;18.50;85.20;;;;;;5034415;28;20049;-77
2022/10/31 09:30:05;;;;;;;19.23;6.03;;;18.50;85.20;;;;;;5052365;28;20052;-77
2022/10/31 09:32:30;;;;;;;15.15;6.05;;;18.50;85.20;;;;;;5050821;28;20391;-77
2022/10/31 09:34:56;;;;;;;15.10;5.50;;;18.50;86.20;;;;;;5050885;28;20272;-77
2022/10/31 09:37:22;;;;;;;14.48;6.13;;;18.50;85.20;;;;;;5050728;28;20071;-77
2022/10/31 09:39:47;;;;;;;11.73;5.03;;;18.50;85.30;;;;;;5052239;28;20511;-77
2022/10/31 09:42:42;;;;;;;13.35;5.18;;;18.50;85.20;;;;;;5050823;28;20095;-77
2022/10/31 09:45:26;;;;;;;13.85;5.38;;;18.40;85.10;;;;;;5052195;28;20025;-77
2022/10/31 09:48:17;;;;;;;18.15;5.55;;;18.50;85.20;;;;;;5052324;28;20079;-77
2022/10/31 09:50:47;;;;;;;15.70;5.65;;;18.40;85.10;;;;;;5050701;28;20086;-77
2022/10/31 09:53:23;;;;;;;12.43;4.70;;;18.40;85.10;;;;;;5048094;28;20024;-77
2022/10/31 09:55:49;;;;;;;11.10;5.20;;;18.40;85.20;;;;;;5030718;28;20042;-77
2022/10/31 09:58:18;;;;;;;14.57;5.97;;;18.40;85.10;;;;;;5030747;28;20090;-77
2022/10/31 10:00:44;;;;;;;13.00;5.22;;;18.40;85.20;;;;;;5030900;28;20045;-76
2022/10/31 10:03:31;;;;;;;11.63;4.85;;;18.40;85.10;;;;;;5031112;28;20078;-77
2022/10/31 10:06:17;;;;;;;11.85;4.35;;;18.40;85.10;;;;;;5031945;28;20025;-77
2022/10/31 10:08:42;;;;;;;12.65;5.13;;;18.40;85.10;;;;;;5030967;28;20480;-77
2022/10/31 10:11:24;;;;;;;15.48;5.60;;;18.40;85.10;;;;;;5030750;28;20037;-77
2022/10/31 10:13:58;;;;;;;11.75;5.05;;;18.40;85.10;;;;;;5030849;28;20029;-76
2022/10/31 10:16:32;;;;;;;13.10;5.53;;;18.40;85.10;;;;;;5032023;28;20039;-76
2022/10/31 10:18:58;;;;;;;13.57;4.65;;;18.40;85.10;;;;;;5031669;28;20091;-77
2022/10/31 10:21:32;;;;;;;13.52;5.40;;;18.40;85.10;;;;;;5037920;28;20482;-77
2022/10/31 10:24:13;;;;;;;9.10;4.88;;;18.30;85.10;;;;;;5053149;28;20020;-77
2022/10/31 10:26:42;;;;;;;11.93;5.40;;;18.40;85.20;;;;;;5022209;28;20450;-77
2022/10/31 10:29:34;;;;;;;9.65;4.78;;;18.40;85.10;;;;;;5038000;28;20067;-77
2022/10/31 10:32:03;;;;;;;9.90;4.57;;;18.40;85.20;;;;;;5054403;28;20033;-77
2022/10/31 10:34:32;;;;;;;9.98;4.72;;;18.30;85.10;;;;;;5037920;28;20029;-77
2022/10/31 10:37:03;;;;;;;11.60;4.93;;;18.30;85.20;;;;;;5037903;28;20029;-77
2022/10/31 10:40:17;;;;;;;16.77;4.70;;;18.30;85.10;;;;;;5037442;28;20119;-77
2022/10/31 10:43:22;;;;;;;12.35;5.40;;;18.30;85.10;;;;;;5053289;28;20064;-77
2022/10/31 10:49:17;;;;;;;12.38;4.50;;;18.30;85.10;;;;;;5054254;28;20449;-77
2022/10/31 10:52:10;;;;;;;11.65;5.38;;;18.30;85.20;;;;;;5055120;28;20091;-77
2022/10/31 10:55:01;;;;;;;11.73;4.95;;;18.30;85.20;;;;;;5039432;28;20030;-77
2022/10/31 10:57:54;;;;;;;8.57;4.82;;;18.30;85.20;;;;;;5033951;28;20116;-77
2022/10/31 11:00:31;;;;;;;10.35;4.00;;;18.30;85.20;;;;;;5033898;28;20044;-77
2022/10/31 11:02:57;;;;;;;11.18;4.75;;;18.30;85.20;;;;;;5033728;28;20030;-77
2022/10/31 11:05:39;;;;;;;8.80;4.35;;;18.30;85.20;;;;;;5033570;28;20025;-77
2022/10/31 11:08:05;;;;;;;7.07;4.78;;;18.30;85.20;;;;;;5033733;28;20021;-77
2022/10/31 11:10:32;;;;;;;12.25;4.50;;;18.30;85.10;;;;;;5033459;28;20377;-77
2022/10/31 11:13:12;;;;;;;9.27;3.97;;;18.30;85.10;;;;;;5033591;28;20022;-77
2022/10/31 11:15:51;;;;;;;8.95;4.32;;;18.30;85.10;;;;;;5034626;28;20068;-77
2022/10/31 11:18:24;;;;;;;10.07;4.10;;;18.30;85.10;;;;;;5016716;28;20034;-77
2022/10/31 11:20:55;;;;;;;10.50;4.43;;;18.30;85.20;;;;;;5035933;28;20021;-77
2022/10/31 11:23:23;;;;;;;9.07;4.38;;;18.30;85.20;;;;;;5036926;28;20063;-77
2022/10/31 11:26:16;;;;;;;10.30;4.43;;;18.30;85.20;;;;;;5036928;28;20391;-77
2022/10/31 11:28:42;;;;;;;8.50;4.63;;;18.30;85.10;;;;;;5036525;28;20025;-77
2022/10/31 11:31:08;;;;;;;13.65;4.13;;;18.30;85.20;;;;;;5036637;28;20442;-77
2022/10/31 11:33:37;;;;;;;10.52;4.18;;;18.30;85.20;;;;;;5036425;28;20047;-77
2022/10/31 11:36:13;;;;;;;11.15;4.00;;;18.20;85.10;;;;;;5052148;28;20021;-77
2022/10/31 11:38:42;;;;;;;8.05;4.20;;;18.20;85.10;;;;;;5037345;28;20471;-77
2022/10/31 11:41:15;;;;;;;9.82;4.00;;;18.20;85.10;;;;;;5053098;28;20021;-77
2022/10/31 11:43:48;;;;;;;9.85;4.18;;;18.30;85.20;;;;;;5052948;28;20032;-77
2022/10/31 11:46:30;;;;;;;10.05;3.85;;;18.20;85.10;;;;;;5019976;28;20021;-77
2022/10/31 11:48:55;;;;;;;11.27;4.30;;;18.20;85.20;;;;;;5036334;28;20029;-77
2022/10/31 11:51:26;;;;;;;8.70;4.03;;;18.30;85.20;;;;;;5036171;28;20103;-77
2022/10/31 11:53:54;;;;;;;11.07;3.75;;;18.20;85.10;;;;;;5028597;28;20061;-77
2022/10/31 11:56:19;;;;;;;7.45;3.72;;;18.20;85.20;;;;;;5032570;28;20076;-77
2022/10/31 11:58:58;;;;;;;7.70;3.53;;;18.20;85.20;;;;;;5032618;28;20029;-77
2022/10/31 12:01:28;;;;;;;7.28;3.63;;;18.20;85.10;;;;;;5032412;28;20018;-77
2022/10/31 12:04:15;;;;;;;7.90;3.88;;;18.20;85.20;;;;;;5032775;28;20026;-77
2022/10/31 12:06:45;;;;;;;7.53;3.67;;;18.20;85.10;;;;;;5033747;28;20021;-77
2022/10/31 12:09:17;;;;;;;8.43;3.40;;;18.20;85.20;;;;;;5032410;28;20025;-77
2022/10/31 12:12:04;;;;;;;10.30;3.60;;;18.20;85.20;;;;;;5032383;28;20033;-77
2022/10/31 12:14:45;;;;;;;15.48;4.80;;;18.20;85.20;;;;;;5033665;28;20100;-77
2022/10/31 12:17:19;;;;;;;7.25;3.78;;;18.20;85.20;;;;;;5033700;28;20372;-77
2022/10/31 12:20:18;;;;;;;14.07;4.20;;;18.20;85.20;;;;;;5032229;28;20061;-77
2022/10/31 12:23:05;;;;;;;7.93;3.40;;;18.20;85.20;;;;;;5050246;28;20123;-77
2022/10/31 12:25:44;;;;;;;7.10;3.83;;;18.20;85.20;;;;;;5052074;28;20514;-76
2022/10/31 12:28:27;;;;;;;7.88;3.40;;;18.20;85.20;;;;;;5053304;28;20026;-77
2022/10/31 12:31:08;;;;;;;8.27;3.70;;;18.20;85.20;;;;;;5053074;28;20017;-77
2022/10/31 12:33:52;;;;;;;5.90;3.40;;;18.20;85.20;;;;;;5053154;28;20064;-77
2022/10/31 12:36:43;;;;;;;6.68;3.70;;;18.20;85.20;;;;;;5051582;28;20120;-77
2022/10/31 12:39:14;;;;;;;5.28;3.92;;;18.20;85.20;;;;;;5051923;28;20075;-77
2022/10/31 12:41:55;;;;;;;6.20;3.70;;;18.20;85.20;;;;;;5052835;28;20025;-77
2022/10/31 12:44:38;;;;;;;6.20;3.90;;;18.20;85.20;;;;;;5047411;28;20071;-77
2022/10/31 12:47:29;;;;;;;6.25;3.65;;;18.20;85.20;;;;;;5048854;28;20021;-77
2022/10/31 12:50:10;;;;;;;7.15;3.72;;;18.20;85.20;;;;;;5038619;28;20088;-77
2022/10/31 12:52:57;;;;;;;4.90;3.80;;;18.20;85.20;;;;;;5032594;28;20100;-77